createdAt,value
2019-01-09T00:02:24.276Z,61.50
2019-01-09T00:04:52.943Z,65.93
2019-01-09T00:07:21.657Z,69.23
2019-01-09T00:09:50.332Z,68.63
2019-01-09T00:12:19.014Z,71.13
2019-01-09T00:14:47.686Z,64.57
2019-01-09T00:17:16.371Z,67.00
2019-01-09T00:19:45.088Z,72.60
2019-01-09T00:22:13.779Z,56.97
2019-01-09T00:24:42.427Z,61.77
2019-01-09T00:27:11.134Z,69.87
2019-01-09T00:29:39.794Z,68.70
2019-01-09T00:32:08.542Z,65.27
2019-01-09T00:34:37.221Z,67.17
2019-01-09T00:37:05.897Z,63.40
2019-01-09T00:39:34.549Z,55.23
2019-01-09T00:42:03.214Z,67.90
2019-01-09T00:44:31.922Z,73.20
2019-01-09T00:47:00.588Z,63.53
2019-01-09T00:49:29.284Z,73.50
2019-01-09T00:51:58.270Z,63.73
2019-01-09T00:54:26.959Z,69.43
2019-01-09T00:56:55.671Z,62.50
2019-01-09T00:59:24.390Z,65.50
2019-01-09T01:02:14.477Z,56.03
2019-01-09T01:04:54.951Z,61.13
2019-01-09T01:07:58.652Z,56.40
2019-01-09T01:10:45.235Z,57.00
2019-01-09T01:13:28.711Z,63.53
2019-01-09T01:16:25.816Z,61.67
2019-01-09T01:19:12.622Z,63.40
2019-01-09T01:21:44.417Z,63.33
2019-01-09T01:24:25.091Z,58.47
2019-01-09T01:27:02.112Z,75.87
2019-01-09T01:29:54.708Z,57.10
2019-01-09T01:32:29.452Z,58.70
2019-01-09T01:35:07.373Z,56.37
2019-01-09T01:37:54.133Z,66.47
2019-01-09T01:40:31.819Z,73.67
2019-01-09T01:43:33.952Z,63.40
2019-01-09T01:46:11.463Z,63.73
2019-01-09T01:49:00.894Z,59.57
2019-01-09T01:51:56.559Z,57.20
2019-01-09T01:54:39.983Z,51.40
2019-01-09T01:57:27.993Z,59.93
2019-01-09T02:00:05.264Z,59.87
2019-01-09T02:02:45.225Z,56.53
2019-01-09T02:05:22.947Z,54.97
2019-01-09T02:08:03.554Z,61.60
2019-01-09T02:10:56.320Z,64.77
2019-01-09T02:13:36.935Z,62.77
2019-01-09T02:16:14.640Z,71.00
2019-01-09T02:18:46.426Z,59.73
2019-01-09T02:21:27.229Z,83.40
2019-01-09T02:24:01.895Z,60.93
2019-01-09T02:26:36.720Z,68.53
2019-01-09T02:29:11.166Z,62.37
2019-01-09T02:31:51.903Z,76.33
2019-01-09T02:34:20.643Z,92.37
2019-01-09T02:36:49.351Z,96.40
2019-01-09T02:39:18.025Z,79.63
2019-01-09T02:41:46.675Z,74.97
2019-01-09T02:44:15.393Z,89.30
2019-01-09T02:46:44.061Z,102.37
2019-01-09T02:49:12.731Z,88.20
2019-01-09T02:51:41.430Z,77.17
2019-01-09T02:54:10.093Z,79.90
2019-01-09T02:56:38.771Z,74.77
2019-01-09T02:59:07.447Z,75.07
2019-01-09T03:01:36.104Z,79.10
2019-01-09T03:04:04.790Z,76.00
2019-01-09T03:06:33.504Z,99.43
2019-01-09T03:09:02.288Z,87.20
2019-01-09T03:11:30.916Z,86.73
2019-01-09T03:13:59.574Z,79.13
2019-01-09T03:16:28.249Z,79.80
2019-01-09T03:19:16.279Z,73.50
2019-01-09T03:21:44.975Z,104.23
2019-01-09T03:24:13.636Z,79.03
2019-01-09T03:26:42.327Z,100.10
2019-01-09T03:29:11.019Z,85.30
2019-01-09T03:31:39.708Z,112.03
2019-01-09T03:34:08.397Z,107.53
2019-01-09T03:36:37.126Z,102.13
2019-01-09T03:39:06.696Z,93.30
2019-01-09T03:41:35.278Z,96.53
2019-01-09T03:44:03.981Z,91.33
2019-01-09T03:46:32.653Z,104.17
2019-01-09T03:49:01.317Z,97.70
2019-01-09T03:51:29.977Z,108.77
2019-01-09T03:53:58.645Z,104.43
2019-01-09T03:56:27.295Z,110.90
2019-01-09T03:58:55.989Z,101.43
2019-01-09T04:01:26.300Z,86.43
2019-01-09T04:03:54.938Z,87.80
2019-01-09T04:06:23.617Z,100.10
2019-01-09T04:08:52.296Z,89.73
2019-01-09T04:11:20.960Z,101.40
2019-01-09T04:13:49.669Z,74.93
2019-01-09T04:16:18.299Z,75.60
2019-01-09T04:18:47.029Z,69.87
2019-01-09T04:21:15.728Z,81.25
2019-01-09T04:23:44.325Z,68.73
2019-01-09T04:26:13.012Z,74.43
2019-01-09T04:28:41.658Z,69.73
2019-01-09T04:31:10.326Z,50.07
2019-01-09T04:33:39.022Z,66.07
2019-01-09T04:36:07.736Z,63.73
2019-01-09T04:38:36.458Z,47.70
2019-01-09T04:41:05.131Z,57.13
2019-01-09T04:43:33.777Z,53.70
2019-01-09T04:46:02.467Z,57.03
2019-01-09T04:48:31.274Z,59.17
2019-01-09T04:50:59.941Z,55.50
2019-01-09T04:53:28.733Z,55.73
2019-01-09T04:55:57.342Z,54.43
2019-01-09T04:58:26.039Z,61.93
2019-01-09T05:00:54.746Z,62.23
2019-01-09T05:03:23.463Z,64.20
2019-01-09T05:05:52.165Z,71.67
2019-01-09T05:08:20.837Z,40.60
2019-01-09T05:10:49.543Z,59.80
2019-01-09T05:13:18.197Z,61.83
2019-01-09T05:15:46.791Z,58.13
2019-01-09T05:18:15.463Z,58.70
2019-01-09T05:20:44.275Z,48.63
2019-01-09T05:23:13.006Z,51.90
2019-01-09T05:25:41.653Z,54.43
2019-01-09T05:28:10.521Z,54.20
2019-01-09T05:30:39.190Z,57.83
2019-01-09T05:33:09.445Z,47.37
2019-01-09T05:35:39.714Z,56.23
2019-01-09T05:38:10.706Z,64.63
2019-01-09T05:40:39.535Z,56.47
2019-01-09T05:43:08.428Z,65.00
2019-01-09T05:45:37.161Z,54.53
2019-01-09T05:48:05.909Z,64.13
2019-01-09T05:50:34.624Z,50.70
2019-01-09T05:53:05.726Z,52.93
2019-01-09T05:55:34.397Z,53.00
2019-01-09T05:58:03.134Z,53.97
2019-01-09T06:00:34.658Z,49.57
2019-01-09T06:03:03.541Z,58.30
2019-01-09T06:05:32.294Z,45.77
2019-01-09T06:08:01.010Z,45.30
2019-01-09T06:10:29.692Z,59.07
2019-01-09T06:12:58.375Z,33.37
2019-01-09T06:15:27.249Z,40.23
2019-01-09T06:17:55.919Z,47.20
2019-01-09T06:20:24.701Z,47.67
2019-01-09T06:22:53.379Z,22.50
2019-01-09T06:25:22.103Z,43.80
2019-01-09T06:27:50.869Z,40.27
2019-01-09T06:30:19.514Z,42.60
2019-01-09T06:32:48.221Z,48.03
2019-01-09T06:35:18.432Z,45.77
2019-01-09T06:37:47.149Z,38.50
2019-01-09T06:40:15.841Z,45.33
2019-01-09T06:42:44.534Z,98.50
2019-01-09T06:45:13.222Z,39.83
2019-01-09T06:47:41.923Z,30.53
2019-01-09T06:50:13.884Z,46.90
2019-01-09T06:52:42.568Z,30.43
2019-01-09T06:55:11.310Z,36.47
2019-01-09T06:57:40.054Z,38.47
2019-01-09T07:00:10.796Z,31.13
2019-01-09T07:02:39.469Z,42.80
2019-01-09T07:05:08.179Z,39.13
2019-01-09T07:07:36.868Z,46.13
2019-01-09T07:10:07.708Z,45.80
2019-01-09T07:12:36.448Z,40.63
2019-01-09T07:15:11.372Z,42.60
2019-01-09T07:17:37.105Z,41.80
2019-01-09T07:20:05.765Z,49.27
2019-01-09T07:22:34.520Z,48.77
2019-01-09T07:25:04.810Z,49.20
2019-01-09T07:27:33.478Z,51.57
2019-01-09T07:30:02.200Z,40.17
2019-01-09T07:32:32.458Z,41.33
2019-01-09T07:35:01.233Z,34.83
2019-01-09T07:37:30.082Z,39.93
2019-01-09T07:40:01.824Z,49.50
2019-01-09T07:42:30.532Z,46.00
2019-01-09T07:44:59.215Z,48.00
2019-01-09T07:47:27.935Z,23.57
2019-01-09T07:49:56.621Z,50.30
2019-01-09T07:52:25.364Z,39.43
2019-01-09T07:54:54.088Z,46.17
2019-01-09T07:57:26.848Z,39.13
2019-01-09T07:59:56.091Z,46.88
2019-01-09T08:02:24.742Z,38.80
2019-01-09T08:04:53.507Z,41.60
2019-01-09T08:07:22.257Z,42.73
2019-01-09T08:09:51.014Z,40.40
2019-01-09T08:12:19.700Z,46.87
2019-01-09T08:14:48.385Z,36.40
2019-01-09T08:17:17.089Z,46.43
2019-01-09T08:19:45.756Z,41.43
2019-01-09T08:22:14.504Z,35.43
2019-01-09T08:24:43.227Z,40.17
2019-01-09T08:27:11.901Z,30.87
2019-01-09T08:29:40.659Z,38.43
2019-01-09T08:32:09.433Z,32.97
2019-01-09T08:34:38.114Z,33.93
2019-01-09T08:37:06.827Z,31.67
2019-01-09T08:39:36.009Z,28.13
2019-01-09T08:42:04.698Z,39.67
2019-01-09T08:44:33.498Z,34.93
2019-01-09T08:47:02.205Z,29.90
2019-01-09T08:49:30.948Z,39.77
2019-01-09T08:51:59.682Z,38.27
2019-01-09T08:54:28.344Z,46.43
2019-01-09T08:56:57.093Z,50.03
2019-01-09T08:59:25.799Z,40.37
2019-01-09T09:01:54.510Z,49.45
2019-01-09T09:04:25.682Z,40.83
2019-01-09T09:06:54.418Z,47.93
2019-01-09T09:09:23.225Z,46.63
2019-01-09T09:11:53.629Z,24.17
2019-01-09T09:14:22.846Z,35.37
2019-01-09T09:16:51.515Z,40.23
2019-01-09T09:19:22.025Z,34.67
2019-01-09T09:21:50.757Z,41.70
2019-01-09T09:24:19.430Z,35.00
2019-01-09T09:26:48.096Z,37.53
2019-01-09T09:29:16.795Z,37.93
2019-01-09T09:31:45.517Z,41.77
2019-01-09T09:34:14.218Z,42.27
2019-01-09T09:36:44.365Z,45.40
2019-01-09T09:39:13.067Z,41.70
2019-01-09T09:41:41.785Z,42.33
2019-01-09T09:44:10.505Z,38.27
2019-01-09T09:46:39.223Z,35.87
2019-01-09T09:49:07.972Z,40.93
2019-01-09T09:51:36.636Z,33.63
2019-01-09T09:54:05.571Z,40.30
2019-01-09T09:56:35.659Z,35.53
2019-01-09T09:59:04.342Z,73.17
2019-01-09T10:01:33.054Z,41.27
2019-01-09T10:04:01.674Z,39.13
2019-01-09T10:06:30.727Z,44.83
2019-01-09T10:08:59.481Z,48.97
2019-01-09T10:11:29.962Z,57.87
2019-01-09T10:13:59.259Z,50.93
2019-01-09T10:16:27.932Z,55.83
2019-01-09T10:18:56.645Z,46.27
2019-01-09T10:21:25.920Z,43.13
2019-01-09T10:23:55.925Z,41.73
2019-01-09T10:26:24.727Z,36.87
2019-01-09T10:28:53.615Z,37.27
2019-01-09T10:31:24.472Z,40.63
2019-01-09T10:33:56.643Z,28.93
2019-01-09T10:36:25.922Z,31.87
2019-01-09T10:38:55.198Z,33.93
2019-01-09T10:41:24.087Z,36.57
2019-01-09T10:43:54.117Z,41.20
2019-01-09T10:46:23.035Z,35.57
2019-01-09T10:51:43.223Z,39.57
2019-01-09T10:54:23.679Z,43.77
2019-01-09T10:56:53.412Z,36.03
2019-01-09T10:59:25.170Z,44.23
2019-01-09T11:01:55.216Z,41.67
2019-01-09T11:04:26.681Z,39.97
2019-01-09T11:06:56.265Z,45.40
2019-01-09T11:09:25.132Z,47.93
2019-01-09T11:11:53.860Z,33.70
2019-01-09T12:23:01.272Z,67.53
2019-01-09T12:25:30.017Z,69.60
2019-01-09T12:27:59.773Z,69.60
2019-01-09T12:30:31.593Z,61.50
2019-01-09T12:33:09.409Z,60.60
2019-01-09T14:06:35.918Z,80.03
2019-01-09T14:09:06.921Z,73.73
2019-01-09T14:11:38.273Z,66.63
2019-01-09T14:14:07.120Z,73.70
2019-01-09T14:16:36.000Z,71.77
2019-01-09T14:19:06.423Z,70.50
2019-01-09T14:21:37.088Z,89.57
2019-01-09T14:24:07.270Z,107.37
2019-01-09T14:26:36.180Z,93.23
2019-01-09T14:29:10.527Z,83.20
2019-01-09T14:31:39.930Z,70.87
2019-01-09T14:34:08.782Z,71.83
2019-01-09T14:36:40.431Z,62.97
2019-01-09T14:39:11.259Z,66.80
2019-01-09T14:41:41.211Z,64.43
2019-01-09T14:44:11.488Z,64.73
2019-01-09T14:46:40.290Z,64.43
2019-01-09T14:49:09.930Z,52.50
2019-01-09T14:51:43.205Z,29.13
2019-01-09T14:54:10.572Z,53.43
2019-01-09T14:56:39.326Z,67.83
2019-01-09T14:59:08.021Z,69.03
2019-01-09T15:01:37.856Z,71.27
2019-01-09T15:04:08.902Z,76.13
2019-01-09T15:06:37.568Z,67.90
2019-01-09T15:09:07.744Z,70.90
2019-01-09T15:11:36.450Z,62.87
2019-01-09T15:14:06.752Z,66.77
2019-01-09T15:16:36.712Z,58.93
2019-01-09T15:19:08.249Z,64.50
2019-01-09T15:21:38.106Z,67.97
2019-01-09T15:24:08.571Z,73.77
2019-01-09T15:26:37.249Z,105.47
2019-01-09T15:29:06.121Z,85.33
2019-01-09T15:31:38.647Z,86.33
2019-01-09T15:34:08.694Z,73.50
2019-01-09T15:36:37.456Z,79.10
2019-01-09T15:39:07.631Z,70.33
2019-01-09T15:41:36.387Z,66.63
2019-01-09T15:44:05.177Z,60.13
2019-01-09T15:46:35.480Z,65.27
2019-01-09T15:49:04.245Z,57.20
2019-01-09T15:51:34.307Z,59.13
2019-01-09T15:54:04.720Z,65.23
2019-01-09T15:56:33.623Z,55.40
2019-01-09T15:59:02.394Z,68.53
2019-01-09T16:01:31.075Z,67.07
2019-01-09T16:04:00.308Z,76.80
2019-01-09T16:06:34.157Z,78.63
2019-01-09T16:50:04.983Z,76.90
2019-01-09T16:52:33.757Z,75.23
2019-01-09T16:55:04.974Z,74.87
2019-01-09T16:57:33.733Z,74.87
2019-01-09T17:00:02.398Z,72.03
2019-01-09T17:02:35.142Z,75.73
2019-01-09T17:05:04.248Z,81.00
2019-01-09T17:07:35.779Z,78.07
2019-01-09T17:10:08.130Z,61.93
2019-01-09T17:12:36.857Z,67.73
2019-01-09T17:15:08.674Z,69.67
2019-01-09T17:17:37.325Z,93.20
2019-01-09T17:20:09.147Z,82.50
2019-01-09T17:22:37.862Z,76.67
2019-01-09T17:25:07.851Z,77.27
2019-01-09T17:27:36.562Z,83.10
2019-01-09T17:30:17.318Z,86.47
2019-01-09T17:32:46.246Z,30.00
2019-01-09T17:49:08.717Z,78.77
2019-01-09T17:51:41.340Z,78.63
2019-01-09T17:54:10.140Z,70.40
2019-01-09T17:56:43.062Z,79.37
2019-01-09T17:59:16.026Z,70.50
2019-01-09T18:01:55.062Z,65.43
2019-01-09T18:04:23.731Z,87.77
2019-01-09T18:06:52.530Z,46.03
2019-01-09T18:09:21.180Z,45.37
2019-01-09T18:11:50.031Z,48.43
2019-01-09T18:14:18.820Z,49.23
2019-01-09T18:16:47.645Z,44.60
2019-01-09T18:19:16.420Z,52.47
2019-01-09T18:21:45.238Z,52.60
2019-01-09T18:24:18.004Z,63.83
2019-01-09T18:26:44.599Z,66.00
2019-01-09T18:29:13.320Z,57.80
2019-01-09T18:32:00.200Z,62.57
2019-01-09T18:34:29.449Z,60.80
2019-01-09T18:37:07.081Z,59.23
2019-01-09T18:39:58.481Z,56.37
2019-01-09T18:42:45.134Z,67.47
2019-01-09T18:45:22.919Z,64.40
2019-01-09T18:47:57.661Z,59.93
2019-01-09T18:50:38.961Z,62.73
2019-01-09T18:53:13.412Z,62.23
2019-01-09T18:55:44.050Z,66.23
2019-01-09T18:58:12.950Z,65.50
2019-01-09T19:00:55.312Z,60.20
2019-01-09T19:03:25.259Z,74.40
2019-01-09T19:05:54.629Z,53.60
2019-01-09T19:08:23.419Z,46.03
2019-01-09T19:10:54.822Z,49.40
2019-01-09T19:13:26.638Z,51.60
2019-01-09T19:15:57.038Z,57.62
2019-01-09T19:18:25.762Z,50.23
2019-01-09T19:20:57.593Z,48.70
2019-01-09T19:23:26.400Z,45.63
2019-01-09T19:25:58.262Z,39.07
2019-01-09T19:28:27.259Z,36.53
2019-01-09T19:30:59.960Z,30.40
2019-01-09T19:33:28.536Z,32.13
2019-01-09T19:36:06.844Z,35.70
2019-01-09T19:39:18.137Z,33.57
2019-01-09T19:41:41.439Z,33.57
2019-01-09T19:44:23.131Z,42.50
2019-01-09T19:46:51.841Z,49.40
2019-01-09T19:49:23.565Z,33.23
2019-01-09T19:51:52.260Z,46.60
2019-01-09T19:54:20.975Z,38.37
2019-01-09T19:56:49.799Z,38.23
2019-01-09T19:59:19.992Z,35.97
2019-01-09T20:01:50.241Z,37.50
2019-01-09T20:04:20.502Z,41.83
2019-01-09T20:06:49.325Z,31.90
2019-01-09T20:09:18.352Z,115.50
2019-01-09T20:11:47.018Z,44.73
2019-01-09T20:14:15.697Z,31.43
2019-01-09T20:16:44.448Z,33.57
2019-01-09T20:19:13.293Z,38.33
2019-01-09T20:21:42.055Z,38.67
2019-01-09T20:24:10.761Z,37.77
2019-01-09T20:26:39.478Z,41.20
2019-01-09T20:29:11.370Z,26.63
2019-01-09T20:31:40.119Z,39.63
2019-01-09T20:34:08.904Z,33.13
2019-01-09T20:36:37.741Z,41.07
2019-01-09T20:39:07.785Z,28.80
2019-01-09T20:41:36.793Z,27.70
2019-01-09T20:44:05.556Z,75.87
2019-01-09T20:46:34.295Z,30.13
2019-01-09T20:49:03.048Z,30.87
2019-01-09T20:51:31.913Z,28.83
2019-01-09T20:54:00.680Z,39.33
2019-01-09T20:56:29.352Z,73.03
2019-01-09T20:58:58.108Z,35.53
2019-01-09T21:01:27.384Z,34.77
2019-01-09T21:03:56.218Z,32.47
2019-01-09T21:06:24.972Z,30.30
2019-01-09T21:08:59.562Z,34.67
2019-01-09T21:11:24.175Z,29.13
2019-01-09T21:13:52.928Z,38.33
2019-01-09T21:16:21.627Z,34.00
2019-01-09T21:18:50.297Z,30.70
2019-01-09T21:21:18.991Z,26.97
2019-01-09T21:23:47.704Z,33.80
2019-01-09T21:26:16.386Z,33.20
2019-01-09T21:28:45.091Z,38.17
2019-01-09T21:31:13.841Z,34.63
2019-01-09T21:33:42.551Z,34.90
2019-01-09T21:36:13.612Z,33.67
2019-01-09T21:38:42.316Z,30.70
2019-01-09T21:41:12.037Z,36.13
2019-01-09T21:43:42.684Z,24.10
2019-01-09T21:46:11.431Z,30.03
2019-01-09T21:48:40.084Z,24.50
2019-01-09T21:51:08.828Z,29.50
2019-01-09T21:53:37.566Z,25.73
2019-01-09T21:56:06.287Z,28.47
2019-01-09T21:58:35.407Z,28.17
2019-01-09T22:01:04.171Z,28.70
2019-01-09T22:03:32.849Z,28.80
2019-01-09T22:06:01.563Z,52.70
2019-01-09T22:08:30.212Z,35.23
2019-01-09T22:10:58.885Z,24.93
2019-01-09T22:13:27.550Z,25.97
2019-01-09T22:15:56.282Z,27.83
2019-01-09T22:18:25.025Z,28.03
2019-01-09T22:20:53.896Z,23.60
2019-01-09T22:23:23.719Z,29.13
2019-01-09T22:25:52.575Z,29.97
2019-01-09T22:28:21.239Z,22.60
2019-01-09T22:30:49.908Z,31.57
2019-01-09T22:33:18.983Z,29.50
2019-01-09T22:35:47.668Z,27.70
2019-01-09T22:38:16.352Z,29.93
2019-01-09T22:40:45.068Z,25.33
2019-01-09T22:43:13.732Z,22.63
2019-01-09T22:45:42.373Z,20.77
2019-01-09T22:48:11.075Z,29.20
2019-01-09T22:50:39.769Z,26.00
2019-01-09T22:53:08.441Z,22.40
2019-01-09T22:55:37.110Z,24.87
2019-01-09T22:58:05.760Z,30.07
2019-01-09T23:00:40.768Z,26.07
2019-01-09T23:03:11.444Z,34.77
2019-01-09T23:05:40.159Z,25.47
2019-01-09T23:08:08.874Z,25.80
2019-01-09T23:10:37.521Z,25.23
2019-01-09T23:13:06.204Z,24.83
2019-01-09T23:15:34.891Z,26.07
2019-01-09T23:18:03.584Z,30.03
2019-01-09T23:20:32.918Z,25.23
2019-01-09T23:23:01.598Z,27.60
2019-01-09T23:25:30.275Z,28.70
2019-01-09T23:28:00.510Z,30.60
2019-01-09T23:30:29.182Z,27.47
2019-01-09T23:32:57.878Z,32.77
2019-01-09T23:35:26.662Z,32.37
2019-01-09T23:37:55.348Z,34.97
2019-01-09T23:40:24.020Z,31.23
2019-01-09T23:42:52.697Z,29.90
2019-01-09T23:45:21.364Z,32.57
2019-01-09T23:47:50.043Z,33.45
2019-01-09T23:50:18.706Z,33.63
2019-01-09T23:52:47.353Z,32.80
2019-01-09T23:55:16.029Z,32.33
2019-01-09T23:57:44.694Z,33.40
